Time;durP1;ratioP1;P1;durP2;ratioP2;P2;SDS_P1;SDS_P2;PMS_P1;PMS_P2;Temp;Humidity;BMP_temperature;BMP_pressure;BME280_temperature;BME280_humidity;BME280_pressure;Samples;Min_cycle;Max_cycle;Signal;HPM_P1;HPM_P2
2023/08/17 00:04:54;;;;;;;8.10;7.30;;;;;;;22.95;70.00;99029.73;226766;1273;22595;-73
2023/08/17 00:09:56;;;;;;;7.70;6.90;;;;;;;22.89;70.19;99043.84;226787;1262;22643;-74
2023/08/17 00:14:58;;;;;;;8.00;7.20;;;;;;;22.82;70.30;99056.31;226719;1272;22533;-73
2023/08/17 00:20:00;;;;;;;7.70;6.90;;;;;;;22.74;70.35;99059.02;226846;1273;22520;-74
2023/08/17 00:25:04;;;;;;;8.40;7.10;;;;;;;22.61;70.46;99057.27;226651;1273;22565;-73
2023/08/17 00:30:07;;;;;;;7.60;6.60;;;;;;;22.53;70.71;99056.79;226831;1273;22532;-73
2023/08/17 00:35:09;;;;;;;8.10;7.40;;;;;;;22.47;70.96;99059.05;226728;1273;22530;-74
2023/08/17 00:40:11;;;;;;;7.20;6.50;;;;;;;22.40;71.13;99063.37;226752;1273;22531;-73
2023/08/17 00:45:13;;;;;;;8.30;7.40;;;;;;;22.33;71.32;99061.65;226849;1273;22546;-73
2023/08/17 00:50:16;;;;;;;7.20;6.50;;;;;;;22.25;71.60;99065.63;226805;1273;22535;-73
2023/08/17 00:55:18;;;;;;;8.10;7.30;;;;;;;22.19;71.92;99067.73;226872;1263;22531;-73
2023/08/17 01:00:20;;;;;;;7.50;6.90;;;;;;;22.15;72.03;99065.90;226791;1272;22539;-73
2023/08/17 01:05:23;;;;;;;7.80;7.10;;;;;;;22.11;72.28;99067.33;226895;1273;22549;-73
2023/08/17 01:10:55;;;;;;;7.80;7.10;;;;;;;22.04;72.65;99075.98;226960;1272;24982;-73
2023/08/17 01:16:01;;;;;;;8.00;7.20;;;;;;;21.97;73.01;99084.02;226774;1273;22534;-73
2023/08/17 01:21:06;;;;;;;7.80;7.10;;;;;;;21.91;73.12;99084.81;226879;1272;22999;-73
2023/08/17 01:26:08;;;;;;;10.80;7.50;;;;;;;21.85;73.24;99084.42;226792;1273;22961;-73
2023/08/17 01:31:31;;;;;;;8.00;7.30;;;;;;;21.79;73.47;99079.15;226837;1272;22634;-73
2023/08/17 01:36:39;;;;;;;7.80;7.00;;;;;;;21.72;73.71;99081.01;226744;1256;211774;-73
2023/08/17 01:41:45;;;;;;;8.40;7.70;;;;;;;21.69;73.86;99086.30;226819;1273;22591;-73
2023/08/17 01:46:48;;;;;;;8.20;7.40;;;;;;;21.65;74.11;99097.08;226841;1273;24233;-73
2023/08/17 01:51:50;;;;;;;8.30;7.50;;;;;;;21.59;74.26;99099.59;226836;1273;22557;-74
2023/08/17 01:56:52;;;;;;;8.00;7.20;;;;;;;21.54;74.36;99102.48;226727;1273;22542;-73
2023/08/17 02:01:54;;;;;;;7.60;6.90;;;;;;;21.51;74.53;99105.91;226815;1251;22555;-73
2023/08/17 02:06:57;;;;;;;7.90;7.20;;;;;;;21.49;74.68;99100.77;226924;1273;25824;-73
2023/08/17 02:11:59;;;;;;;8.60;7.80;;;;;;;21.45;74.95;99102.39;226828;1273;22530;-73
2023/08/17 02:17:01;;;;;;;10.90;7.50;;;;;;;21.41;75.06;99107.13;226747;1273;22512;-74
2023/08/17 02:22:04;;;;;;;8.40;7.50;;;;;;;21.37;75.18;99111.54;226775;1273;25436;-73
2023/08/17 02:27:09;;;;;;;8.20;7.50;;;;;;;21.32;75.36;99112.11;226735;1271;22531;-74
2023/08/17 02:32:11;;;;;;;8.60;7.80;;;;;;;21.28;75.45;99113.83;226885;1273;25255;-73
2023/08/17 02:37:12;;;;;;;8.50;7.70;;;;;;;21.24;75.62;99115.48;226815;1272;22528;-73
2023/08/17 02:42:15;;;;;;;8.40;7.50;;;;;;;21.18;75.82;99123.41;226758;1273;22535;-73
2023/08/17 02:47:17;;;;;;;8.30;7.50;;;;;;;21.11;75.96;99117.48;226836;1273;22731;-73
2023/08/17 02:52:19;;;;;;;7.80;7.10;;;;;;;21.05;76.21;99113.13;226623;1273;23263;-73
2023/08/17 02:57:21;;;;;;;8.20;7.50;;;;;;;20.99;76.34;99110.39;226790;1273;22552;-74
2023/08/17 03:02:23;;;;;;;8.90;8.10;;;;;;;20.91;76.54;99117.44;226860;1272;22620;-73
2023/08/17 03:07:26;;;;;;;9.30;8.40;;;;;;;20.84;76.83;99118.17;226775;1266;22527;-73
2023/08/17 03:12:29;;;;;;;10.50;8.30;;;;;;;20.77;77.09;99117.98;226847;1273;22534;-72
2023/08/17 03:17:31;;;;;;;9.70;8.80;;;;;;;20.72;77.24;99115.02;226704;1273;22604;-74
2023/08/17 03:22:34;;;;;;;10.30;9.00;;;;;;;20.69;77.43;99116.52;226775;1273;22646;-73
2023/08/17 03:27:36;;;;;;;9.70;8.70;;;;;;;20.65;77.59;99113.48;226823;1267;22541;-74
2023/08/17 03:32:39;;;;;;;11.80;10.50;;;;;;;20.63;77.92;99107.29;226718;1273;22546;-73
2023/08/17 03:37:41;;;;;;;12.90;11.60;;;;;;;20.59;78.32;99100.63;226798;1270;22530;-73
2023/08/17 03:42:44;;;;;;;14.50;12.40;;;;;;;20.56;78.68;99101.16;226777;1273;22534;-73
2023/08/17 03:47:47;;;;;;;13.70;12.30;;;;;;;20.55;78.94;99100.27;226778;1273;22534;-73
2023/08/17 03:52:49;;;;;;;14.00;12.30;;;;;;;20.53;79.19;99105.98;226745;1257;22535;-74
2023/08/17 03:57:51;;;;;;;13.90;12.60;;;;;;;20.51;79.53;99104.52;226795;1274;24740;-74
2023/08/17 04:02:53;;;;;;;13.20;12.00;;;;;;;20.49;79.61;99102.77;226671;1274;22571;-73
2023/08/17 04:08:01;;;;;;;13.50;12.20;;;;;;;20.49;79.70;99101.54;226724;1273;22537;-73
2023/08/17 04:13:03;;;;;;;12.40;11.30;;;;;;;20.48;79.84;99100.98;226672;1273;22552;-73
2023/08/17 04:18:05;;;;;;;11.10;10.00;;;;;;;20.48;79.94;99100.83;226689;1273;22530;-73
2023/08/17 04:23:07;;;;;;;10.60;9.60;;;;;;;20.49;80.04;99101.41;226716;1273;22530;-73
2023/08/17 04:28:09;;;;;;;9.80;8.80;;;;;;;20.50;80.15;99103.16;226807;1273;22530;-73
2023/08/17 04:33:12;;;;;;;9.10;8.20;;;;;;;20.52;80.25;99103.35;226724;1273;22518;-74
2023/08/17 04:38:15;;;;;;;9.10;8.20;;;;;;;20.56;80.33;99112.45;226630;1267;22534;-73
2023/08/17 04:43:17;;;;;;;8.20;7.40;;;;;;;20.61;80.37;99118.12;226784;1273;22569;-73
2023/08/17 04:48:20;;;;;;;8.00;7.30;;;;;;;20.68;80.27;99123.65;226739;1273;22558;-73
2023/08/17 04:53:22;;;;;;;7.40;6.80;;;;;;;20.81;80.36;99125.34;226658;1256;24218;-73
2023/08/17 04:58:25;;;;;;;7.20;6.50;;;;;;;20.94;80.04;99127.74;226758;1273;22534;-73
2023/08/17 05:03:27;;;;;;;8.70;6.60;;;;;;;21.05;79.99;99126.77;226630;1273;22650;-73
2023/08/17 05:08:35;;;;;;;8.00;7.20;;;;;;;21.12;79.87;99130.73;226659;1271;22527;-73
2023/08/17 05:13:38;;;;;;;8.10;6.70;;;;;;;21.16;79.77;99131.22;226680;1273;22534;-72
2023/08/17 05:18:41;;;;;;;8.40;7.50;;;;;;;21.20;79.78;99134.10;226716;1274;22531;-73
2023/08/17 05:23:44;;;;;;;7.20;6.50;;;;;;;21.27;79.62;99138.80;226723;1274;22533;-73
2023/08/17 05:28:46;;;;;;;8.30;7.20;;;;;;;21.34;79.69;99146.61;226699;1273;22551;-73
2023/08/17 05:33:48;;;;;;;7.80;6.90;;;;;;;21.40;79.53;99144.73;226855;1273;22545;-74
2023/08/17 05:38:51;;;;;;;8.90;8.00;;;;;;;21.47;79.54;99143.59;226872;1260;24238;-74
2023/08/17 05:43:53;;;;;;;7.60;6.90;;;;;;;21.54;79.46;99151.53;226768;1272;22533;-73
2023/08/17 05:48:55;;;;;;;7.80;7.10;;;;;;;21.61;79.41;99163.25;226458;1261;22538;-73
2023/08/17 05:53:57;;;;;;;10.50;7.10;;;;;;;21.71;79.39;99164.83;226298;1260;22608;-75
2023/08/17 05:58:59;;;;;;;7.90;6.70;;;;;;;21.84;79.18;99165.77;226599;1260;24230;-73
2023/08/17 06:04:01;;;;;;;7.70;6.90;;;;;;;21.96;78.93;99164.95;226671;1269;22530;-74
2023/08/17 06:09:07;;;;;;;8.80;7.40;;;;;;;22.09;78.78;99169.74;226301;1251;22544;-73
2023/08/17 06:14:09;;;;;;;8.70;7.50;;;;;;;22.19;78.33;99175.50;226435;1254;22665;-73
2023/08/17 06:19:11;;;;;;;7.90;7.10;;;;;;;22.22;78.33;99176.94;226296;1267;22572;-74
2023/08/17 06:24:13;;;;;;;9.30;8.10;;;;;;;22.31;78.18;99178.79;226616;1267;24451;-73
2023/08/17 06:29:15;;;;;;;9.00;8.00;;;;;;;22.46;78.34;99177.81;226518;1273;22549;-74
2023/08/17 06:34:17;;;;;;;9.40;8.40;;;;;;;22.61;78.05;99168.02;226547;1267;22556;-74
2023/08/17 06:39:19;;;;;;;8.70;8.00;;;;;;;22.80;77.97;99167.19;226495;1269;22530;-73
2023/08/17 06:44:21;;;;;;;9.80;8.90;;;;;;;23.06;77.67;99169.21;226082;1266;22717;-73
2023/08/17 06:49:24;;;;;;;11.10;9.40;;;;;;;23.26;77.37;99171.88;226392;1263;25490;-72
2023/08/17 06:54:26;;;;;;;12.20;10.30;;;;;;;23.38;76.97;99171.30;226409;1267;23106;-73
2023/08/17 06:59:28;;;;;;;11.60;10.50;;;;;;;23.46;76.97;99173.16;226148;1273;22611;-73
2023/08/17 07:04:30;;;;;;;13.90;12.40;;;;;;;23.50;76.66;99178.86;226360;1266;22555;-72
2023/08/17 07:09:32;;;;;;;12.60;11.40;;;;;;;23.58;76.61;99179.20;226159;1273;22535;-72
2023/08/17 07:14:34;;;;;;;13.30;12.00;;;;;;;23.63;76.47;99181.04;226309;1251;22614;-71
2023/08/17 07:19:36;;;;;;;13.40;12.20;;;;;;;23.78;76.45;99182.42;226536;1264;22871;-75
2023/08/17 07:24:46;;;;;;;13.90;12.50;;;;;;;24.07;76.25;99173.98;226581;1267;23101;-74
2023/08/17 07:29:48;;;;;;;15.50;12.90;;;;;;;24.38;76.04;99174.98;226336;1251;23770;-75
2023/08/17 07:34:50;;;;;;;14.10;12.80;;;;;;;24.68;75.53;99170.57;226635;1272;24218;-73
2023/08/17 07:39:52;;;;;;;14.70;13.30;;;;;;;24.75;74.32;99168.20;226624;1269;22552;-73
2023/08/17 07:44:54;;;;;;;14.80;13.30;;;;;;;24.78;74.72;99167.98;226608;1263;22545;-74
2023/08/17 07:49:57;;;;;;;16.20;14.40;;;;;;;25.02;74.68;99172.47;226566;1266;22526;-75
2023/08/17 07:54:59;;;;;;;13.50;12.10;;;;;;;25.33;74.31;99177.45;226511;1267;22534;-76
2023/08/17 08:00:02;;;;;;;15.90;14.40;;;;;;;25.65;74.10;99173.24;226578;1267;22541;-75
2023/08/17 08:05:08;;;;;;;15.40;13.90;;;;;;;25.91;73.01;99171.96;226760;1266;22909;-73
2023/08/17 08:10:10;;;;;;;15.40;13.70;;;;;;;26.08;72.75;99174.73;226645;1273;22531;-73
2023/08/17 08:15:13;;;;;;;14.70;13.40;;;;;;;26.30;72.56;99176.03;226733;1272;22544;-73
2023/08/17 08:20:15;;;;;;;15.80;13.50;;;;;;;26.48;71.96;99175.59;226511;1272;22556;-73
2023/08/17 08:25:16;;;;;;;15.40;13.80;;;;;;;26.79;72.01;99170.41;226537;1260;22563;-74
2023/08/17 08:30:19;;;;;;;18.30;15.40;;;;;;;27.03;71.13;99165.55;226560;1273;22554;-73
2023/08/17 08:35:22;;;;;;;14.70;13.30;;;;;;;27.08;69.97;99161.71;226385;1273;22764;-73
2023/08/17 08:40:29;;;;;;;15.10;13.60;;;;;;;27.07;69.81;99161.83;226583;1269;22660;-73
2023/08/17 08:45:31;;;;;;;15.50;14.00;;;;;;;27.09;69.61;99159.32;226437;1269;22548;-74
2023/08/17 08:50:35;;;;;;;15.70;14.00;;;;;;;27.11;69.34;99152.95;226614;1266;22539;-75
2023/08/17 08:55:41;;;;;;;15.40;14.00;;;;;;;27.30;69.89;99152.91;226760;1259;22556;-72
2023/08/17 09:00:50;;;;;;;17.10;14.10;;;;;;;27.60;69.78;99146.17;226713;1267;22550;-73
2023/08/17 09:05:52;;;;;;;16.40;14.70;;;;;;;27.86;69.03;99144.43;226723;1272;22972;-73
2023/08/17 09:10:54;;;;;;;13.40;12.20;;;;;;;27.99;68.62;99138.77;226541;1273;22608;-72
2023/08/17 09:15:59;;;;;;;15.60;14.10;;;;;;;27.93;67.11;99135.42;226646;1253;22525;-73
2023/08/17 09:21:01;;;;;;;14.80;13.40;;;;;;;27.78;67.06;99132.31;226549;1259;22546;-73
2023/08/17 09:26:09;;;;;;;14.40;13.20;;;;;;;27.81;67.47;99128.69;226524;1273;22553;-72
2023/08/17 09:31:11;;;;;;;16.70;15.10;;;;;;;27.93;67.31;99122.15;226633;1272;22533;-73
2023/08/17 09:36:13;;;;;;;14.30;12.90;;;;;;;28.00;66.99;99116.14;226515;1271;22592;-72
2023/08/17 09:41:16;;;;;;;15.60;14.00;;;;;;;28.16;66.54;99106.73;226517;1272;22543;-73
2023/08/17 09:46:18;;;;;;;14.90;13.60;;;;;;;28.30;66.17;99100.29;226738;1270;22539;-73
2023/08/17 09:51:20;;;;;;;14.10;12.60;;;;;;;28.53;66.13;99091.91;226567;1268;25519;-73
2023/08/17 09:56:24;;;;;;;13.20;12.10;;;;;;;28.66;64.99;99083.89;226578;1269;22529;-73
2023/08/17 10:01:28;;;;;;;14.00;12.60;;;;;;;28.83;64.93;99082.27;226622;1272;22544;-72
2023/08/17 10:06:32;;;;;;;15.10;13.60;;;;;;;29.10;64.29;99079.58;226604;1272;22589;-72
2023/08/17 10:11:37;;;;;;;16.50;14.90;;;;;;;29.33;62.72;99079.06;226583;1266;22580;-73
2023/08/17 10:16:45;;;;;;;16.50;13.20;;;;;;;29.42;62.29;99076.42;226527;1273;22536;-73
2023/08/17 10:21:53;;;;;;;13.00;11.50;;;;;;;29.66;61.43;99081.83;226689;1270;22537;-74
2023/08/17 10:26:56;;;;;;;13.00;11.90;;;;;;;29.83;60.55;99079.05;226594;1263;22493;-74
2023/08/17 10:32:01;;;;;;;10.20;9.20;;;;;;;29.91;59.76;99080.61;226602;1269;24233;-74
2023/08/17 10:37:04;;;;;;;11.00;9.90;;;;;;;30.04;59.04;99075.25;226783;1270;22547;-74
2023/08/17 10:42:06;;;;;;;10.20;9.30;;;;;;;30.14;58.44;99074.36;226644;1269;22654;-74
2023/08/17 10:47:22;;;;;;;10.80;9.70;;;;;;;30.24;58.44;99075.17;226779;1260;22538;-74
2023/08/17 10:52:27;;;;;;;11.20;10.20;;;;;;;30.38;58.41;99073.67;226617;1267;22544;-75
2023/08/17 10:57:32;;;;;;;11.50;10.30;;;;;;;30.50;58.06;99077.34;226635;1269;22541;-73
2023/08/17 11:02:34;;;;;;;12.70;10.70;;;;;;;30.56;57.45;99080.07;226613;1269;22579;-72
2023/08/17 11:07:42;;;;;;;10.60;9.70;;;;;;;30.64;57.05;99086.14;226597;1273;22546;-72
2023/08/17 11:12:44;;;;;;;11.20;10.00;;;;;;;30.70;56.69;99083.75;226370;1273;22743;-73
2023/08/17 11:17:46;;;;;;;11.80;10.80;;;;;;;30.78;56.15;99078.23;226559;1269;22538;-83
2023/08/17 11:22:48;;;;;;;12.70;11.40;;;;;;;30.75;55.58;99081.48;226437;1263;25283;-71
2023/08/17 11:27:51;;;;;;;12.30;11.10;;;;;;;30.78;56.16;99086.73;226551;1269;22559;-71
2023/08/17 11:32:55;;;;;;;12.60;10.80;;;;;;;30.97;55.81;99076.61;226592;1272;22559;-71
2023/08/17 11:37:57;;;;;;;11.90;10.90;;;;;;;31.04;55.64;99064.63;226559;1266;22536;-71
2023/08/17 11:42:59;;;;;;;14.30;12.70;;;;;;;30.98;55.44;99056.80;226515;1260;22587;-71
2023/08/17 11:48:01;;;;;;;12.10;10.60;;;;;;;30.80;55.45;99056.34;226560;1259;22545;-74
2023/08/17 11:53:04;;;;;;;11.90;10.00;;;;;;;30.46;54.93;99059.73;226576;1266;22534;-71
2023/08/17 11:58:07;;;;;;;34.70;9.50;;;;;;;30.03;54.85;99076.15;226605;1273;25245;-71
2023/08/17 12:03:15;;;;;;;10.60;8.40;;;;;;;28.79;57.71;99098.81;226649;1266;22689;-71
2023/08/17 12:08:18;;;;;;;10.00;7.20;;;;;;;26.87;60.46;99086.99;226526;1273;22541;-71
2023/08/17 12:13:20;;;;;;;8.10;7.30;;;;;;;25.44;62.93;99078.80;226558;1269;22523;-72
2023/08/17 12:18:21;;;;;;;9.10;8.20;;;;;;;24.55;65.00;99096.85;226571;1267;22551;-72
2023/08/17 12:23:23;;;;;;;8.50;7.70;;;;;;;24.01;66.65;99125.69;226586;1260;22683;-73
2023/08/17 12:28:25;;;;;;;7.40;6.20;;;;;;;23.68;67.90;99142.65;226551;1262;22553;-72
2023/08/17 12:33:27;;;;;;;6.90;6.20;;;;;;;23.45;68.33;99146.56;226482;1251;22529;-72
2023/08/17 12:38:29;;;;;;;7.30;6.50;;;;;;;23.23;69.15;99146.77;226393;1257;22545;-74
2023/08/17 12:43:32;;;;;;;7.60;6.40;;;;;;;23.11;70.30;99155.98;226622;1266;23128;-73
2023/08/17 12:48:34;;;;;;;8.60;6.20;;;;;;;23.04;70.55;99141.00;226523;1260;22557;-74
2023/08/17 12:53:37;;;;;;;7.20;6.40;;;;;;;22.99;71.30;99146.20;226478;1251;22537;-74
2023/08/17 12:58:39;;;;;;;7.40;6.70;;;;;;;22.94;71.95;99150.05;226452;1263;22497;-74
2023/08/17 13:03:41;;;;;;;7.30;6.50;;;;;;;22.95;72.29;99157.39;226409;1267;22552;-72
2023/08/17 13:08:43;;;;;;;7.80;6.20;;;;;;;22.92;72.47;99166.95;226594;1270;22536;-73
2023/08/17 13:13:45;;;;;;;8.80;6.40;;;;;;;22.85;73.01;99178.16;226591;1272;22530;-72
2023/08/17 13:18:46;;;;;;;8.00;6.50;;;;;;;22.82;73.38;99178.43;226728;1271;22704;-72
2023/08/17 13:23:48;;;;;;;8.40;6.30;;;;;;;22.83;73.56;99175.38;226557;1260;22547;-72
2023/08/17 13:28:53;;;;;;;7.40;6.60;;;;;;;22.85;73.87;99168.96;226609;1256;22582;-73
2023/08/17 13:33:55;;;;;;;8.10;7.30;;;;;;;22.89;74.31;99171.57;226463;1257;160200;-72
2023/08/17 13:38:57;;;;;;;6.50;5.80;;;;;;;22.92;74.31;99179.62;226738;1267;22520;-72
2023/08/17 13:44:02;;;;;;;9.10;6.30;;;;;;;22.93;74.30;99182.06;226612;1269;22535;-80
2023/08/17 13:49:04;;;;;;;6.60;5.90;;;;;;;22.93;74.27;99178.34;226532;1262;22638;-74
2023/08/17 13:54:06;;;;;;;6.70;6.00;;;;;;;22.92;74.20;99174.93;226562;1260;22735;-74
2023/08/17 13:59:08;;;;;;;7.70;6.30;;;;;;;22.92;74.24;99167.92;226440;1253;22535;-74
2023/08/17 14:04:14;;;;;;;6.10;5.60;;;;;;;22.96;74.49;99155.89;226363;1269;22570;-74
2023/08/17 14:09:16;;;;;;;7.90;6.10;;;;;;;23.01;74.27;99127.12;226480;1273;22583;-75
2023/08/17 14:14:18;;;;;;;6.90;5.30;;;;;;;23.07;74.24;99119.45;226499;1271;22537;-75
2023/08/17 14:19:20;;;;;;;6.80;6.10;;;;;;;23.14;74.11;99101.00;226422;1272;22557;-75
2023/08/17 14:24:22;;;;;;;6.10;5.50;;;;;;;23.21;74.07;99089.81;226757;1269;22591;-74
2023/08/17 14:29:24;;;;;;;8.70;6.10;;;;;;;23.31;74.02;99075.90;226760;1271;22592;-75
2023/08/17 14:34:26;;;;;;;8.20;6.40;;;;;;;23.45;74.12;99063.50;226857;1271;22680;-75
2023/08/17 14:39:27;;;;;;;8.50;6.80;;;;;;;23.62;74.08;99073.50;226703;1269;22537;-75
2023/08/17 14:44:29;;;;;;;9.60;7.30;;;;;;;23.81;73.70;99068.42;226744;1272;22630;-74
2023/08/17 14:49:31;;;;;;;10.00;8.20;;;;;;;24.02;73.34;99060.24;226787;1272;22541;-75
2023/08/17 14:54:33;;;;;;;11.60;8.00;;;;;;;24.19;73.40;99054.38;226799;1272;22531;-74
2023/08/17 14:59:36;;;;;;;12.20;8.50;;;;;;;24.34;73.13;99046.23;226846;1272;22712;-75
2023/08/17 15:04:38;;;;;;;11.10;8.60;;;;;;;24.44;72.98;99054.67;226849;1270;22524;-75
2023/08/17 15:09:40;;;;;;;10.80;8.20;;;;;;;24.53;72.75;99057.19;226836;1272;25393;-75
2023/08/17 15:14:42;;;;;;;9.40;8.40;;;;;;;24.58;72.58;99060.98;226738;1269;22544;-75
2023/08/17 15:19:44;;;;;;;12.00;9.40;;;;;;;24.61;72.16;99074.98;226805;1272;22521;-74
2023/08/17 15:24:46;;;;;;;9.50;8.60;;;;;;;24.60;72.02;99074.27;226785;1273;22721;-75
2023/08/17 15:29:48;;;;;;;12.10;9.30;;;;;;;24.54;72.09;99073.94;226652;1273;22530;-75
2023/08/17 15:34:50;;;;;;;8.50;7.40;;;;;;;24.54;72.44;99064.16;226800;1272;24183;-74
2023/08/17 15:39:54;;;;;;;8.90;7.10;;;;;;;24.61;72.27;99075.58;226792;1256;23034;-75
2023/08/17 15:44:56;;;;;;;7.20;6.50;;;;;;;24.60;71.56;99090.39;226835;1273;22529;-74
2023/08/17 15:49:58;;;;;;;8.10;7.20;;;;;;;24.54;71.37;99084.42;226811;1253;22524;-75
2023/08/17 15:55:00;;;;;;;8.20;7.50;;;;;;;24.43;71.30;99077.09;226718;1269;22520;-74
2023/08/17 16:00:02;;;;;;;9.40;8.00;;;;;;;24.27;71.16;99081.35;226858;1263;22540;-74
2023/08/17 16:05:09;;;;;;;8.50;6.90;;;;;;;24.10;71.45;99088.39;226778;1272;22546;-74
2023/08/17 16:10:11;;;;;;;8.90;8.00;;;;;;;23.94;71.54;99086.54;226776;1269;22528;-76
2023/08/17 16:15:14;;;;;;;9.00;7.90;;;;;;;23.79;71.67;99089.30;226757;1273;22704;-74
2023/08/17 16:20:16;;;;;;;10.70;7.70;;;;;;;23.68;72.29;99084.95;226802;1270;25426;-75
2023/08/17 16:25:18;;;;;;;12.50;8.60;;;;;;;23.58;72.64;99088.92;226710;1251;22593;-75
2023/08/17 16:30:20;;;;;;;11.30;8.60;;;;;;;23.48;73.14;99087.68;226782;1259;22588;-75
2023/08/17 16:35:22;;;;;;;10.40;8.20;;;;;;;23.38;73.42;99071.51;226739;1270;22583;-76
2023/08/17 16:40:30;;;;;;;10.30;8.20;;;;;;;23.27;73.55;99067.63;226772;1273;24288;-76
2023/08/17 16:45:39;;;;;;;9.00;8.10;;;;;;;23.17;73.76;99065.92;226720;1269;23620;-74
2023/08/17 16:50:41;;;;;;;11.30;8.20;;;;;;;23.07;74.10;99067.54;226773;1272;22644;-74
2023/08/17 16:55:43;;;;;;;9.80;8.40;;;;;;;22.96;74.43;99063.50;226921;1270;22587;-74
2023/08/17 17:00:48;;;;;;;9.50;7.60;;;;;;;22.87;74.88;99071.36;226886;1274;24755;-75
2023/08/17 17:05:50;;;;;;;12.70;9.10;;;;;;;22.82;75.21;99080.19;226792;1273;22575;-75
2023/08/17 17:10:52;;;;;;;9.60;8.60;;;;;;;22.78;75.61;99065.70;226804;1273;23781;-75
2023/08/17 17:15:54;;;;;;;11.70;9.40;;;;;;;22.72;75.70;99056.97;226815;1273;22691;-75
2023/08/17 17:20:56;;;;;;;11.90;9.50;;;;;;;22.68;76.09;99050.86;226795;1273;22543;-74
2023/08/17 17:25:58;;;;;;;10.70;9.40;;;;;;;22.65;76.38;99049.44;226712;1272;25945;-74
2023/08/17 17:31:03;;;;;;;12.10;9.20;;;;;;;22.60;76.65;99052.25;226725;1273;22533;-74
2023/08/17 17:36:06;;;;;;;10.70;8.90;;;;;;;22.47;76.92;99055.19;226803;1266;25383;-74
2023/08/17 17:41:08;;;;;;;11.70;10.00;;;;;;;22.33;77.20;99053.56;226846;1272;22637;-75
2023/08/17 17:46:10;;;;;;;10.60;9.50;;;;;;;22.22;77.73;99050.46;226826;1273;22535;-75
2023/08/17 17:51:12;;;;;;;11.30;9.30;;;;;;;22.06;78.02;99049.25;226661;1274;22545;-75
2023/08/17 17:56:14;;;;;;;9.30;8.30;;;;;;;21.90;78.39;99043.70;226702;1270;22530;-75
2023/08/17 18:01:16;;;;;;;9.60;7.60;;;;;;;21.75;78.32;99032.15;226773;1256;22524;-74
2023/08/17 18:06:18;;;;;;;7.70;7.00;;;;;;;21.66;78.43;99031.13;226773;1273;22526;-75
2023/08/17 18:11:20;;;;;;;18.70;16.90;;;;;;;21.58;78.36;99033.73;226755;1272;22545;-75
2023/08/17 18:16:22;;;;;;;7.90;7.20;;;;;;;21.51;78.34;99027.50;226805;1273;22534;-75
2023/08/17 18:21:24;;;;;;;7.60;6.50;;;;;;;21.44;78.23;99020.85;226752;1257;22533;-74
2023/08/17 18:26:26;;;;;;;8.30;6.70;;;;;;;21.37;78.18;99020.08;226828;1272;22548;-75
2023/08/17 18:31:29;;;;;;;7.70;6.90;;;;;;;21.31;78.37;99019.36;226777;1256;22542;-76
2023/08/17 18:36:32;;;;;;;8.20;7.30;;;;;;;21.24;78.59;99018.58;227017;1272;22543;-79
2023/08/17 18:41:34;;;;;;;8.70;7.80;;;;;;;21.17;78.62;99017.99;226896;1260;22547;-76
2023/08/17 18:46:36;;;;;;;9.50;8.30;;;;;;;21.13;79.28;99018.20;226966;1273;22744;-75
2023/08/17 18:51:42;;;;;;;10.90;9.00;;;;;;;21.08;79.58;99014.23;226919;1272;24232;-76
2023/08/17 18:56:44;;;;;;;12.00;10.80;;;;;;;21.05;79.86;99017.27;226964;1274;22530;-74
2023/08/17 19:01:45;;;;;;;14.20;11.50;;;;;;;21.04;80.26;99012.63;226957;1274;22548;-75
2023/08/17 19:06:47;;;;;;;12.40;11.20;;;;;;;21.02;80.39;99016.85;226948;1272;22542;-75
2023/08/17 19:11:49;;;;;;;13.20;11.90;;;;;;;21.00;80.63;99018.16;226801;1272;22579;-75
2023/08/17 19:16:51;;;;;;;13.90;12.20;;;;;;;21.00;80.84;99013.31;226738;1270;22532;-74
2023/08/17 19:21:53;;;;;;;13.90;11.50;;;;;;;20.99;80.90;99015.55;226789;1273;22544;-74
2023/08/17 19:26:55;;;;;;;14.30;12.10;;;;;;;20.99;81.10;99017.38;226714;1273;22548;-75
2023/08/17 19:31:57;;;;;;;14.90;11.80;;;;;;;21.01;81.28;99016.46;226742;1270;24893;-75
2023/08/17 19:37:00;;;;;;;13.60;12.00;;;;;;;21.03;81.48;99013.27;226710;1273;22538;-75
2023/08/17 19:42:02;;;;;;;12.30;11.00;;;;;;;21.05;81.45;99019.15;226762;1272;22534;-75
2023/08/17 19:47:05;;;;;;;11.40;10.20;;;;;;;21.07;81.46;99021.05;226915;1266;22569;-75
2023/08/17 19:52:09;;;;;;;11.10;9.30;;;;;;;21.10;81.41;99032.98;227003;1272;23017;-74
2023/08/17 19:57:10;;;;;;;14.20;12.60;;;;;;;21.14;81.58;99052.83;226815;1272;23071;-75
2023/08/17 20:02:12;;;;;;;14.60;12.70;;;;;;;21.14;81.66;99045.36;226762;1260;22537;-76
2023/08/17 20:07:14;;;;;;;15.90;12.70;;;;;;;21.12;81.92;99049.74;226881;1272;23026;-76
2023/08/17 20:12:16;;;;;;;13.90;12.10;;;;;;;21.12;81.85;99032.17;226726;1274;22608;-75
2023/08/17 20:17:19;;;;;;;12.50;11.00;;;;;;;21.09;81.60;99022.24;226630;1273;22550;-75
2023/08/17 20:22:21;;;;;;;13.40;11.60;;;;;;;21.10;81.92;99039.23;226700;1273;22524;-74
2023/08/17 20:27:22;;;;;;;16.80;12.70;;;;;;;21.10;81.81;99059.96;226692;1273;24237;-75
2023/08/17 20:32:24;;;;;;;23.40;13.60;;;;;;;21.10;81.80;99074.16;226768;1273;22533;-74
2023/08/17 20:37:26;;;;;;;16.30;13.10;;;;;;;21.08;82.03;99079.98;226854;1275;22587;-74
2023/08/17 20:42:29;;;;;;;16.50;12.50;;;;;;;21.07;82.13;99103.70;226911;1273;22534;-74
2023/08/17 20:47:30;;;;;;;17.00;13.80;;;;;;;21.05;82.72;99114.11;226917;1274;22529;-74
2023/08/17 20:52:33;;;;;;;10.90;9.60;;;;;;;21.00;82.82;99117.63;226775;1273;22534;-75
2023/08/17 20:57:35;;;;;;;9.80;8.00;;;;;;;20.95;82.83;99105.45;226715;1273;22547;-75
2023/08/17 21:02:37;;;;;;;7.60;6.80;;;;;;;20.90;82.36;99106.91;226765;1269;22534;-75
2023/08/17 21:07:39;;;;;;;8.60;7.50;;;;;;;20.89;82.20;99109.95;226837;1273;22530;-75
2023/08/17 21:12:42;;;;;;;7.90;7.10;;;;;;;20.86;81.76;99094.38;226913;1273;22536;-74
2023/08/17 21:17:45;;;;;;;7.30;6.50;;;;;;;20.82;81.58;99089.95;226935;1274;22572;-75
2023/08/17 21:22:50;;;;;;;9.10;7.70;;;;;;;20.77;81.31;99084.48;226731;1273;22533;-74
2023/08/17 21:27:53;;;;;;;9.60;8.30;;;;;;;20.73;81.25;99093.59;226695;1273;23413;-74
2023/08/17 21:32:54;;;;;;;10.40;8.00;;;;;;;20.65;81.09;99096.95;226657;1265;22578;-74
2023/08/17 21:37:56;;;;;;;7.90;7.00;;;;;;;20.57;81.05;99098.34;226726;1273;22545;-74
2023/08/17 21:42:58;;;;;;;8.60;7.40;;;;;;;20.50;81.31;99096.17;226780;1273;22561;-74
2023/08/17 21:48:00;;;;;;;10.10;7.30;;;;;;;20.46;81.30;99094.03;226731;1271;22539;-75
2023/08/17 21:53:02;;;;;;;8.70;7.80;;;;;;;20.41;81.33;99093.56;226745;1273;22524;-75
2023/08/17 21:58:04;;;;;;;7.60;6.90;;;;;;;20.36;81.21;99089.13;226749;1273;22561;-74
2023/08/17 22:03:06;;;;;;;7.70;6.90;;;;;;;20.29;81.19;99086.64;226742;1273;22550;-75
2023/08/17 22:08:08;;;;;;;7.80;7.00;;;;;;;20.23;81.34;99089.42;226792;1273;22532;-74
2023/08/17 22:13:10;;;;;;;10.10;8.00;;;;;;;20.20;81.48;99090.33;226659;1273;22538;-74
2023/08/17 22:18:12;;;;;;;8.50;7.70;;;;;;;20.15;81.58;99088.55;226694;1272;22547;-75
2023/08/17 22:23:14;;;;;;;8.10;7.30;;;;;;;20.13;81.70;99082.23;226748;1270;24224;-75
2023/08/17 22:28:16;;;;;;;9.40;8.40;;;;;;;20.11;81.79;99079.67;226763;1270;22534;-74
2023/08/17 22:33:18;;;;;;;9.60;8.10;;;;;;;20.09;81.83;99078.94;226686;1264;22533;-74
2023/08/17 22:38:20;;;;;;;9.50;8.40;;;;;;;20.05;81.67;99083.05;226723;1273;22660;-75
2023/08/17 22:43:22;;;;;;;9.60;8.50;;;;;;;19.97;81.82;99083.30;226758;1273;22545;-74
2023/08/17 22:48:24;;;;;;;8.90;8.00;;;;;;;19.88;81.91;99087.38;226726;1271;22548;-75
2023/08/17 22:53:26;;;;;;;10.00;8.70;;;;;;;19.78;81.99;99088.94;226781;1272;25392;-74
2023/08/17 22:58:28;;;;;;;8.80;7.90;;;;;;;19.68;82.24;99087.81;226770;1267;22560;-74
2023/08/17 23:03:30;;;;;;;8.40;7.50;;;;;;;19.63;82.49;99084.75;226885;1272;22631;-75
2023/08/17 23:08:35;;;;;;;8.10;7.40;;;;;;;19.60;82.56;99083.61;226755;1273;22654;-74
2023/08/17 23:13:37;;;;;;;8.40;7.60;;;;;;;19.57;82.65;99074.21;226716;1262;22548;-74
2023/08/17 23:18:39;;;;;;;8.70;7.10;;;;;;;19.55;82.59;99067.73;226832;1273;23292;-75